createdAt,value
2022-11-27T05:09:02.344Z,12.60
2022-11-27T05:14:33.034Z,12.60
2022-11-27T09:13:17.437Z,13.10
2022-11-27T09:23:12.954Z,13.10
2022-11-27T09:34:43.646Z,13.20
2022-11-27T09:40:39.529Z,13.20
2022-11-27T09:47:29.050Z,13.30
2022-11-27T09:56:19.889Z,13.30
2022-11-27T10:09:04.734Z,13.40
2022-11-27T10:12:09.546Z,13.50
2022-11-27T10:31:24.357Z,13.60
2022-11-27T10:36:46.296Z,13.70
2022-11-27T10:49:42.625Z,13.80
2022-11-27T10:52:16.577Z,13.90
2022-11-27T11:00:30.094Z,13.90
2022-11-27T11:02:58.996Z,13.90
2022-11-27T11:09:50.805Z,14.00
2022-11-27T11:12:27.895Z,14.10
2022-11-27T11:15:02.296Z,14.10
2022-11-27T11:17:45.671Z,14.10
2022-11-27T11:20:27.004Z,14.10
2022-11-27T11:23:08.746Z,14.10
2022-11-27T11:25:53.403Z,14.10
2022-11-27T11:28:37.969Z,14.10
2022-11-27T11:31:57.014Z,14.20
2022-11-27T11:35:21.859Z,14.10
2022-11-27T11:38:23.236Z,14.10
2022-11-27T11:42:34.501Z,14.20
2022-11-27T11:44:43.776Z,14.10
2022-11-27T11:50:12.171Z,14.10
2022-11-27T11:53:23.725Z,14.10
2022-11-27T11:55:53.764Z,14.10
2022-11-27T11:59:14.739Z,14.10
2022-11-27T12:02:05.547Z,14.20
2022-11-27T12:04:52.830Z,14.20
2022-11-27T12:10:33.881Z,14.30
2022-11-27T12:13:33.038Z,14.30
2022-11-27T12:16:42.868Z,14.30
2022-11-27T12:19:39.323Z,14.30
2022-11-27T12:22:37.459Z,14.30
2022-11-27T12:25:31.373Z,14.40
2022-11-27T12:28:37.909Z,14.40
2022-11-27T12:31:44.518Z,14.40
2022-11-27T12:34:52.628Z,14.40
2022-11-27T12:37:23.420Z,14.50
2022-11-27T12:40:03.833Z,14.50
2022-11-27T12:42:52.240Z,14.50
2022-11-27T12:46:00.743Z,14.50
2022-11-27T12:48:37.837Z,14.50
2022-11-27T12:51:09.562Z,14.60
2022-11-27T12:54:21.876Z,14.60
2022-11-27T12:57:17.049Z,14.60
2022-11-27T13:00:00.019Z,14.60
2022-11-27T13:02:48.659Z,14.60
2022-11-27T13:05:30.961Z,14.60
2022-11-27T13:08:10.588Z,14.60
2022-11-27T13:11:08.640Z,14.60
2022-11-27T13:13:44.496Z,14.60
2022-11-27T13:16:24.772Z,14.60
2022-11-27T13:19:13.670Z,14.60
2022-11-27T13:21:46.001Z,14.60
2022-11-27T13:24:20.066Z,14.60
2022-11-27T13:27:08.000Z,14.60
2022-11-27T13:29:44.407Z,14.60
2022-11-27T13:32:42.079Z,14.60
2022-11-27T13:36:11.733Z,14.60
2022-11-27T13:38:45.414Z,14.60
2022-11-27T13:41:39.943Z,14.60
2022-11-27T13:44:29.819Z,14.60
2022-11-27T13:47:08.450Z,14.60
2022-11-27T13:49:44.742Z,14.60
2022-11-27T13:52:23.709Z,14.60
2022-11-27T13:55:17.974Z,14.60
2022-11-27T13:58:02.525Z,14.50
2022-11-27T14:03:42.190Z,14.60
2022-11-27T14:06:28.600Z,14.50
2022-11-27T14:09:15.908Z,14.50
2022-11-27T14:11:55.741Z,14.50
2022-11-27T14:14:42.110Z,14.50
2022-11-27T14:17:27.027Z,14.50
2022-11-27T14:20:18.835Z,14.40
2022-11-27T14:23:14.626Z,14.40
2022-11-27T14:26:14.966Z,14.40
2022-11-27T14:28:53.003Z,14.50
2022-11-27T14:31:44.908Z,14.40
2022-11-27T14:34:36.999Z,14.40
2022-11-27T14:37:04.092Z,14.40
2022-11-27T14:39:42.632Z,14.40
2022-11-27T14:42:40.207Z,14.40
2022-11-27T14:45:13.928Z,14.30
2022-11-27T14:47:57.799Z,14.40
2022-11-27T14:50:26.825Z,14.30
2022-11-27T14:52:59.236Z,14.30
2022-11-27T14:55:34.980Z,14.30
2022-11-27T14:58:04.920Z,14.20
2022-11-27T15:00:36.705Z,14.20
2022-11-27T15:03:38.997Z,14.20
2022-11-27T15:06:26.518Z,14.20
2022-11-27T15:09:30.193Z,14.20
2022-11-27T15:11:56.623Z,14.20
2022-11-27T15:14:38.468Z,14.10
2022-11-27T15:17:27.343Z,14.10
2022-11-27T15:20:04.798Z,14.10
2022-11-27T15:22:36.991Z,14.10
2022-11-27T15:25:13.772Z,14.10
2022-11-27T15:34:47.766Z,14.00
2022-11-27T15:38:24.265Z,14.00
2022-11-27T15:41:43.758Z,13.90
2022-11-27T15:45:05.016Z,13.90
2022-11-27T15:48:01.755Z,13.90
2022-11-27T15:50:55.039Z,13.90
2022-11-27T15:58:03.111Z,13.80
2022-11-27T16:00:56.891Z,13.80
2022-11-27T16:03:42.037Z,13.80
2022-11-27T16:06:20.635Z,13.70
2022-11-27T16:17:42.205Z,13.70
2022-11-27T16:27:27.347Z,13.60
2022-11-27T18:20:26.306Z,12.70
2022-11-27T18:54:17.386Z,12.50
2022-11-27T18:56:57.020Z,12.50
2022-11-27T18:59:44.294Z,12.50
2022-11-27T19:02:13.961Z,12.50
2022-11-27T19:04:44.581Z,12.50
2022-11-27T19:07:21.887Z,12.40
2022-11-27T19:22:44.511Z,12.40
2022-11-27T19:30:44.337Z,12.40
2022-11-27T19:33:41.105Z,12.30
2022-11-27T19:36:15.432Z,12.30
2022-11-27T19:38:45.030Z,12.30
2022-11-27T19:41:24.911Z,12.30
2022-11-27T19:48:51.795Z,12.30
2022-11-27T19:54:14.828Z,12.20
2022-11-27T19:57:28.943Z,12.20
2022-11-27T20:00:00.060Z,12.20
2022-11-27T20:02:40.649Z,12.20
2022-11-27T20:08:27.614Z,12.20
2022-11-27T20:11:17.085Z,12.20
2022-11-27T20:14:00.232Z,12.20
2022-11-27T20:20:00.846Z,12.10
2022-11-27T20:22:25.198Z,12.10
2022-11-27T20:31:11.174Z,12.10
2022-11-27T20:49:34.602Z,12.10
2022-11-27T21:14:37.803Z,12.10
2022-11-27T21:17:13.386Z,12.10
2022-11-27T21:19:41.940Z,12.10
2022-11-27T21:22:11.373Z,12.10
2022-11-27T21:25:01.325Z,12.20
2022-11-27T22:35:13.310Z,12.20
2022-11-27T22:37:52.078Z,12.00
2022-11-27T22:42:39.038Z,11.90
2022-11-27T22:47:49.955Z,11.90
2022-11-27T22:50:17.394Z,11.90
2022-11-27T22:53:30.228Z,11.80
2022-11-27T22:56:02.707Z,11.80
2022-11-27T23:02:25.449Z,11.80
2022-11-27T23:05:07.769Z,11.90
2022-11-27T23:07:37.779Z,11.80
2022-11-27T23:10:32.016Z,11.80
2022-11-27T23:19:28.562Z,11.80
2022-11-27T23:22:13.474Z,11.80
2022-11-27T23:24:54.734Z,11.70
2022-11-27T23:27:27.158Z,11.70
2022-11-27T23:34:19.934Z,11.60
2022-11-27T23:37:09.221Z,11.50
2022-11-27T23:40:02.549Z,11.50
2022-11-27T23:43:14.305Z,11.40
2022-11-27T23:45:46.811Z,11.40
2022-11-27T23:48:18.999Z,11.30
2022-11-27T23:50:54.786Z,11.30
2022-11-27T23:53:31.004Z,11.30
2022-11-27T23:56:08.490Z,11.20
2022-11-27T23:58:42.340Z,11.20
